Terminal Aerodrome Forecast
Issued by NWS

Home | Current Version | Previous Version | Text Only | Print | Product List | Glossary On
Versions: 1 2 3 4 5 6 7 8 9 10 11 12 13 14 15 16 17 18 19 20 21 22 23 24 25 26 27
000
FTUS46 KSEW 281015 AAB
TAFSEA
TAF AMD
KSEA 281015Z 2810/0112 VRB03KT P6SM VCSH SCT012 BKN025 OVC035
      TEMPO 2810/2812 VRB03KT 4SM -SHRASN BR SCT006 OVC012
     FM281400 16005KT P6SM SCT008 OVC022
     FM281900 20008KT P6SM SCT020 BKN035
     FM282100 20010KT P6SM BKN040
     FM010300 21013G23KT P6SM -RA OVC035
     FM010600 21015G25KT P6SM VCSH BKN035=

USA.gov is the U.S. government's official web portal to all federal, state and local government web resources and services.